Česky Dansk Deutsch English Español Suomi Français Magyar Italiano Nederlands norsk Polski Português svenska Türkçe

 

Het Weer

Tartu/Ulenurme (Estland)

14:50, 21 augustus 2016 (GMT)

NWNNE
WE
SWSSE
Home            
Tartu/Ulenurme Parnu Tallinn Riga Riga International Airport Helsinki-Malmi Kardla Helsinki-Vantaa Kuressaare St. Peterburg Utti Lappeenranta Velikie Luki Ventspils Siauliai Intl./Mil. Turku Mikkeli Tampere / Pirkkala Liepaja International Airport Vitebsk Halli Kaunas Vilnius

Om een weerknop op uw website of weblog te plaatsen, copieer onderstaande code en plak die in uw pagina. In het eerste vakje staat HTML-code, in het tweede vakje UBB-code.


Add to Google

Details

Wind speed:2 bf, 5 kn, 2.6 m/s, 5.8 miles/h, 9.3 km/h
Wind direction:SE, 130°
Visibility:Greater than 10000 m, 10 km, 32800 ft, 6.2 miles
Clouds:CAVOC
Temperature:25°C, 77°F
Gefühlte Temperatur:26°C, 79°F
Dew-point:15°C, 59°F
Atmospheric pressure:1019 hPa, 764.3 mmHg, 30.09 inHg, 1.006 atm
Relative humidity:53.8 %
METAR:EETU 211450Z 13005KT CAVOK 25/15 Q1019

Snelkoppelingen

Actuele weersinformatie van de hele wereld. Voeg locaties toe met het plus (+) symbool. Deze snelkoppelingen kunnen worden toegevoegd aan Google.

Lid van de Technetium groep

website free tracking
StatCounter NetStat W3C Validator

27-10-2020 02:10:26
astro.technetium.be money.technetium.be phote.technetium.be tafeltennistafel.technetium.be www.ligfiets.net